Cornell, California
Current Conditions -  °F | °C
As of 1:51 PM on Saturday 20 Dec 2014 (Local Time) from KVNY Reporting Station
Broken Clouds Broken Clouds  
Wind Chill: 64°   Ceiling: 20000
Heat Index: 64°   Visibility: 10mi
Dew Point: 50°   Wind: 3mph
Humidity: 60%   Direction: 120°ESE
Pressure: 30.11"   Gusts: NA
Location:  34.1403°N, 118.762°W
Report Text: KVNY 202151Z 12003KT 10SM BKN200 BKN250 18/10 A3011 RMK AO2 SLP193 T01780100
Loading
Personal Weather Stations






























Interactive Weather Map New forecast layout! Learn more

10-Day Weather Forecast

Advertisements
Track Severe Weather on mobile